Terminal Aerodrome Forecast
Issued by NWS

Home | Current Version | Previous Version | Text Only | Print | Product List | Glossary On
Versions: 1 2 3 4 5 6 7 8 9 10 11 12 13 14 15 16 17 18 19 20 21 22 23 24 25 26 27 28 29 30 31 32 33 34 35 36 37
000
FTUS45 KGJT 020324 AAB
TAFRIL
TAF AMD
KRIL 020324Z 0203/0224 32009KT P6SM OVC200
      TEMPO 0203/0204 26012G22KT
     FM020600 24006KT P6SM SCT120 BKN250
     FM021700 26014G24KT P6SM SCT100 BKN250=

USA.gov is the U.S. government's official web portal to all federal, state and local government web resources and services.